sensor_id;sensor_type;location;lat;lon;timestamp;pressure;altitude;pressure_sealevel;temperature;humidity
13767;BME280;47980;48.794;9.176;2023-03-26T00:02:10;97786.75;;;8.79;93.74
13767;BME280;47980;48.794;9.176;2023-03-26T00:04:41;97786.75;;;8.71;93.09
13767;BME280;47980;48.794;9.176;2023-03-26T00:07:15;97789.59;;;8.65;93.45
13767;BME280;47980;48.794;9.176;2023-03-26T00:09:47;97790.25;;;8.62;93.82
13767;BME280;47980;48.794;9.176;2023-03-26T00:12:20;97791.63;;;8.60;93.75
13767;BME280;47980;48.794;9.176;2023-03-26T00:14:51;97786.53;;;8.55;92.82
13767;BME280;47980;48.794;9.176;2023-03-26T00:17:23;97787.47;;;8.59;93.71
13767;BME280;47980;48.794;9.176;2023-03-26T00:19:54;97787.94;;;8.52;94.28
13767;BME280;47980;48.794;9.176;2023-03-26T00:22:26;97788.00;;;8.43;94.55
13767;BME280;47980;48.794;9.176;2023-03-26T00:24:58;97784.09;;;8.50;93.98
13767;BME280;47980;48.794;9.176;2023-03-26T00:27:32;97782.72;;;8.43;95.81
13767;BME280;47980;48.794;9.176;2023-03-26T00:30:05;97783.75;;;8.51;93.10
13767;BME280;47980;48.794;9.176;2023-03-26T00:32:37;97784.53;;;8.52;94.38
13767;BME280;47980;48.794;9.176;2023-03-26T00:35:09;97781.59;;;8.44;94.13
13767;BME280;47980;48.794;9.176;2023-03-26T00:37:42;97792.50;;;8.43;94.29
13767;BME280;47980;48.794;9.176;2023-03-26T00:40:16;97784.72;;;8.47;94.22
13767;BME280;47980;48.794;9.176;2023-03-26T00:42:50;97778.06;;;8.40;96.24
13767;BME280;47980;48.794;9.176;2023-03-26T00:45:21;97777.88;;;8.37;95.98
13767;BME280;47980;48.794;9.176;2023-03-26T00:47:53;97768.09;;;8.46;95.29
13767;BME280;47980;48.794;9.176;2023-03-26T00:50:24;97768.09;;;8.46;94.98
13767;BME280;47980;48.794;9.176;2023-03-26T00:52:56;97766.66;;;8.49;94.59
13767;BME280;47980;48.794;9.176;2023-03-26T00:55:28;97764.50;;;8.42;94.79
13767;BME280;47980;48.794;9.176;2023-03-26T00:58:01;97755.69;;;8.38;93.40
13767;BME280;47980;48.794;9.176;2023-03-26T01:00:34;97757.38;;;8.42;92.20
13767;BME280;47980;48.794;9.176;2023-03-26T01:03:09;97745.22;;;8.50;93.55
13767;BME280;47980;48.794;9.176;2023-03-26T01:05:47;97735.00;;;8.40;91.94
13767;BME280;47980;48.794;9.176;2023-03-26T01:08:26;97731.59;;;8.39;93.08
13767;BME280;47980;48.794;9.176;2023-03-26T01:11:01;97732.50;;;8.43;92.38
13767;BME280;47980;48.794;9.176;2023-03-26T01:13:36;97732.50;;;8.43;93.49
13767;BME280;47980;48.794;9.176;2023-03-26T01:16:20;97727.38;;;8.38;94.05
13767;BME280;47980;48.794;9.176;2023-03-26T01:18:53;97715.25;;;8.37;94.46
13767;BME280;47980;48.794;9.176;2023-03-26T01:21:28;97722.22;;;8.42;93.01
13767;BME280;47980;48.794;9.176;2023-03-26T01:24:03;97712.63;;;8.37;92.53
13767;BME280;47980;48.794;9.176;2023-03-26T01:26:57;97701.88;;;8.42;93.16
13767;BME280;47980;48.794;9.176;2023-03-26T01:29:39;97704.97;;;8.44;93.57
13767;BME280;47980;48.794;9.176;2023-03-26T01:32:17;97702.00;;;8.46;93.37
13767;BME280;47980;48.794;9.176;2023-03-26T01:35:04;97704.47;;;8.51;91.25
13767;BME280;47980;48.794;9.176;2023-03-26T01:37:47;97696.88;;;8.50;92.70
13767;BME280;47980;48.794;9.176;2023-03-26T01:40:33;97691.03;;;8.56;92.28
13767;BME280;47980;48.794;9.176;2023-03-26T01:43:17;97690.66;;;8.46;91.58
13767;BME280;47980;48.794;9.176;2023-03-26T01:45:52;97680.22;;;8.49;92.07
13767;BME280;47980;48.794;9.176;2023-03-26T01:48:31;97674.16;;;8.49;91.80
13767;BME280;47980;48.794;9.176;2023-03-26T01:51:05;97672.53;;;8.56;91.33
13767;BME280;47980;48.794;9.176;2023-03-26T01:53:40;97666.94;;;8.58;91.71
13767;BME280;47980;48.794;9.176;2023-03-26T01:56:19;97668.88;;;8.70;89.77
13767;BME280;47980;48.794;9.176;2023-03-26T01:59:10;97663.13;;;8.67;90.74
13767;BME280;47980;48.794;9.176;2023-03-26T02:01:52;97658.78;;;8.72;89.21
13767;BME280;47980;48.794;9.176;2023-03-26T02:04:33;97642.44;;;8.70;88.65
13767;BME280;47980;48.794;9.176;2023-03-26T02:07:13;97646.31;;;8.72;90.65
13767;BME280;47980;48.794;9.176;2023-03-26T02:09:49;97639.94;;;8.73;89.61
13767;BME280;47980;48.794;9.176;2023-03-26T02:12:23;97621.16;;;8.66;90.05
13767;BME280;47980;48.794;9.176;2023-03-26T02:14:58;97622.81;;;8.71;89.87
13767;BME280;47980;48.794;9.176;2023-03-26T02:17:30;97616.34;;;8.68;89.46
13767;BME280;47980;48.794;9.176;2023-03-26T02:20:02;97617.88;;;8.69;90.95
13767;BME280;47980;48.794;9.176;2023-03-26T02:22:35;97612.72;;;8.73;89.84
13767;BME280;47980;48.794;9.176;2023-03-26T02:25:12;97619.66;;;8.77;88.99
13767;BME280;47980;48.794;9.176;2023-03-26T02:27:46;97606.31;;;8.74;90.00
13767;BME280;47980;48.794;9.176;2023-03-26T02:30:21;97594.63;;;8.75;89.93
13767;BME280;47980;48.794;9.176;2023-03-26T02:32:55;97600.72;;;8.75;89.82
13767;BME280;47980;48.794;9.176;2023-03-26T02:35:28;97602.25;;;8.76;88.99
13767;BME280;47980;48.794;9.176;2023-03-26T02:37:59;97598.09;;;8.75;88.27
13767;BME280;47980;48.794;9.176;2023-03-26T02:40:31;97607.44;;;8.73;89.38
13767;BME280;47980;48.794;9.176;2023-03-26T02:43:04;97602.38;;;8.80;89.16
13767;BME280;47980;48.794;9.176;2023-03-26T02:45:35;97602.56;;;8.75;88.22
13767;BME280;47980;48.794;9.176;2023-03-26T02:48:07;97594.72;;;8.66;88.95
13767;BME280;47980;48.794;9.176;2023-03-26T02:50:38;97596.84;;;8.73;89.59
13767;BME280;47980;48.794;9.176;2023-03-26T02:53:10;97595.19;;;8.68;88.35
13767;BME280;47980;48.794;9.176;2023-03-26T02:55:42;97595.81;;;8.65;89.36
13767;BME280;47980;48.794;9.176;2023-03-26T02:58:15;97586.81;;;8.78;87.80
13767;BME280;47980;48.794;9.176;2023-03-26T03:00:47;97584.06;;;8.75;87.21
13767;BME280;47980;48.794;9.176;2023-03-26T03:03:20;97577.88;;;8.71;89.38
13767;BME280;47980;48.794;9.176;2023-03-26T03:05:54;97566.94;;;8.60;89.85
13767;BME280;47980;48.794;9.176;2023-03-26T03:08:26;97561.34;;;8.61;89.34
13767;BME280;47980;48.794;9.176;2023-03-26T03:10:59;97560.75;;;8.56;88.95
13767;BME280;47980;48.794;9.176;2023-03-26T03:13:32;97546.00;;;8.55;89.47
13767;BME280;47980;48.794;9.176;2023-03-26T03:16:04;97547.75;;;8.51;89.91
13767;BME280;47980;48.794;9.176;2023-03-26T03:18:37;97540.19;;;8.61;90.09
13767;BME280;47980;48.794;9.176;2023-03-26T03:21:08;97531.16;;;8.62;90.02
13767;BME280;47980;48.794;9.176;2023-03-26T03:23:40;97534.81;;;8.70;89.75
13767;BME280;47980;48.794;9.176;2023-03-26T03:26:13;97531.41;;;8.70;88.63
13767;BME280;47980;48.794;9.176;2023-03-26T03:28:46;97524.69;;;8.72;89.11
13767;BME280;47980;48.794;9.176;2023-03-26T03:31:18;97517.31;;;8.78;87.60
13767;BME280;47980;48.794;9.176;2023-03-26T03:33:51;97507.84;;;8.77;88.99
13767;BME280;47980;48.794;9.176;2023-03-26T03:36:22;97503.78;;;8.79;88.59
13767;BME280;47980;48.794;9.176;2023-03-26T03:38:56;97499.50;;;8.87;88.22
13767;BME280;47980;48.794;9.176;2023-03-26T03:41:31;97491.75;;;8.82;87.06
13767;BME280;47980;48.794;9.176;2023-03-26T03:44:04;97496.63;;;8.92;88.94
13767;BME280;47980;48.794;9.176;2023-03-26T03:46:36;97494.75;;;8.92;89.05
13767;BME280;47980;48.794;9.176;2023-03-26T03:49:07;97494.63;;;8.89;88.95
13767;BME280;47980;48.794;9.176;2023-03-26T03:51:39;97488.16;;;8.86;89.86
13767;BME280;47980;48.794;9.176;2023-03-26T03:54:11;97492.75;;;8.89;88.22
13767;BME280;47980;48.794;9.176;2023-03-26T03:56:43;97495.22;;;8.95;87.57
13767;BME280;47980;48.794;9.176;2023-03-26T03:59:17;97485.06;;;8.97;88.13
13767;BME280;47980;48.794;9.176;2023-03-26T04:01:50;97487.81;;;8.88;87.56
13767;BME280;47980;48.794;9.176;2023-03-26T04:04:21;97473.28;;;8.94;89.23
13767;BME280;47980;48.794;9.176;2023-03-26T04:06:53;97480.44;;;8.94;88.16
13767;BME280;47980;48.794;9.176;2023-03-26T04:09:25;97469.97;;;8.97;88.02
13767;BME280;47980;48.794;9.176;2023-03-26T04:11:56;97468.34;;;9.05;87.96
13767;BME280;47980;48.794;9.176;2023-03-26T04:14:29;97467.00;;;8.99;87.77
13767;BME280;47980;48.794;9.176;2023-03-26T04:17:01;97462.03;;;8.97;87.94
13767;BME280;47980;48.794;9.176;2023-03-26T04:19:34;97456.41;;;8.99;86.86
13767;BME280;47980;48.794;9.176;2023-03-26T04:22:06;97448.47;;;8.99;86.60
13767;BME280;47980;48.794;9.176;2023-03-26T04:24:38;97449.69;;;9.01;87.67
13767;BME280;47980;48.794;9.176;2023-03-26T04:27:12;97446.72;;;9.03;87.90
13767;BME280;47980;48.794;9.176;2023-03-26T04:29:48;97439.88;;;9.02;87.67
13767;BME280;47980;48.794;9.176;2023-03-26T04:32:22;97434.59;;;9.02;87.46
13767;BME280;47980;48.794;9.176;2023-03-26T04:34:55;97431.72;;;9.07;86.17
13767;BME280;47980;48.794;9.176;2023-03-26T04:37:30;97414.97;;;9.15;85.41
13767;BME280;47980;48.794;9.176;2023-03-26T04:40:06;97409.59;;;9.11;85.42
13767;BME280;47980;48.794;9.176;2023-03-26T04:42:38;97396.78;;;9.13;84.70
13767;BME280;47980;48.794;9.176;2023-03-26T04:45:17;97393.03;;;9.14;82.47
13767;BME280;47980;48.794;9.176;2023-03-26T04:47:51;97394.59;;;9.15;82.60
13767;BME280;47980;48.794;9.176;2023-03-26T04:50:23;97386.75;;;9.19;82.46
13767;BME280;47980;48.794;9.176;2023-03-26T04:52:56;97377.56;;;9.41;82.05
13767;BME280;47980;48.794;9.176;2023-03-26T04:55:32;97366.66;;;9.30;82.07
13767;BME280;47980;48.794;9.176;2023-03-26T04:58:04;97380.00;;;9.22;84.52
13767;BME280;47980;48.794;9.176;2023-03-26T05:00:37;97384.78;;;9.16;84.15
13767;BME280;47980;48.794;9.176;2023-03-26T05:03:09;97380.34;;;9.20;84.12
13767;BME280;47980;48.794;9.176;2023-03-26T05:05:41;97376.28;;;9.23;83.68
13767;BME280;47980;48.794;9.176;2023-03-26T05:08:13;97373.53;;;9.19;82.16
13767;BME280;47980;48.794;9.176;2023-03-26T05:10:44;97377.03;;;9.23;83.14
13767;BME280;47980;48.794;9.176;2023-03-26T05:13:16;97384.31;;;9.26;82.14
13767;BME280;47980;48.794;9.176;2023-03-26T05:15:49;97380.97;;;9.29;81.37
13767;BME280;47980;48.794;9.176;2023-03-26T05:18:21;97382.19;;;9.44;80.24
13767;BME280;47980;48.794;9.176;2023-03-26T05:20:53;97369.19;;;9.39;80.48
13767;BME280;47980;48.794;9.176;2023-03-26T05:23:26;97368.97;;;9.44;79.87
13767;BME280;47980;48.794;9.176;2023-03-26T05:25:57;97361.47;;;9.34;80.04
13767;BME280;47980;48.794;9.176;2023-03-26T05:28:29;97348.13;;;9.30;80.95
13767;BME280;47980;48.794;9.176;2023-03-26T05:31:02;97338.31;;;9.31;79.27
13767;BME280;47980;48.794;9.176;2023-03-26T05:33:34;97329.81;;;9.37;79.84
13767;BME280;47980;48.794;9.176;2023-03-26T05:36:07;97314.13;;;9.45;81.09
13767;BME280;47980;48.794;9.176;2023-03-26T05:38:42;97323.06;;;9.40;79.15
13767;BME280;47980;48.794;9.176;2023-03-26T05:41:16;97322.28;;;9.39;79.66
13767;BME280;47980;48.794;9.176;2023-03-26T05:43:48;97334.66;;;9.48;79.39
13767;BME280;47980;48.794;9.176;2023-03-26T05:46:21;97329.00;;;9.49;79.36
13767;BME280;47980;48.794;9.176;2023-03-26T05:48:53;97321.06;;;9.49;78.76
13767;BME280;47980;48.794;9.176;2023-03-26T05:51:24;97318.63;;;9.56;77.86
13767;BME280;47980;48.794;9.176;2023-03-26T05:53:56;97306.97;;;9.45;78.38
13767;BME280;47980;48.794;9.176;2023-03-26T05:56:28;97302.78;;;9.44;76.86
13767;BME280;47980;48.794;9.176;2023-03-26T05:58:59;97295.00;;;9.51;77.97
13767;BME280;47980;48.794;9.176;2023-03-26T06:01:32;97296.03;;;9.47;77.92
13767;BME280;47980;48.794;9.176;2023-03-26T06:04:04;97290.06;;;9.50;79.04
13767;BME280;47980;48.794;9.176;2023-03-26T06:06:35;97284.50;;;9.55;79.84
13767;BME280;47980;48.794;9.176;2023-03-26T06:09:08;97275.50;;;9.56;79.64
13767;BME280;47980;48.794;9.176;2023-03-26T06:11:41;97256.19;;;9.55;79.15
13767;BME280;47980;48.794;9.176;2023-03-26T06:14:12;97251.50;;;9.64;77.93
13767;BME280;47980;48.794;9.176;2023-03-26T06:16:45;97242.88;;;9.68;78.51
13767;BME280;47980;48.794;9.176;2023-03-26T06:19:17;97242.78;;;9.64;82.83
13767;BME280;47980;48.794;9.176;2023-03-26T06:21:48;97244.13;;;9.58;83.14
13767;BME280;47980;48.794;9.176;2023-03-26T06:24:20;97233.97;;;9.60;85.63
13767;BME280;47980;48.794;9.176;2023-03-26T06:26:51;97226.97;;;9.52;83.06
13767;BME280;47980;48.794;9.176;2023-03-26T06:29:23;97220.84;;;9.63;82.31
13767;BME280;47980;48.794;9.176;2023-03-26T06:31:56;97224.59;;;9.62;82.78
13767;BME280;47980;48.794;9.176;2023-03-26T06:34:27;97221.69;;;9.68;83.58
13767;BME280;47980;48.794;9.176;2023-03-26T06:36:59;97217.25;;;9.87;84.73
13767;BME280;47980;48.794;9.176;2023-03-26T06:39:30;97216.06;;;9.85;84.53
13767;BME280;47980;48.794;9.176;2023-03-26T06:42:02;97217.09;;;9.80;81.31
13767;BME280;47980;48.794;9.176;2023-03-26T06:44:33;97216.66;;;9.78;79.71
13767;BME280;47980;48.794;9.176;2023-03-26T06:47:06;97212.66;;;9.84;79.75
13767;BME280;47980;48.794;9.176;2023-03-26T06:49:38;97203.78;;;9.77;75.85
13767;BME280;47980;48.794;9.176;2023-03-26T06:52:11;97197.63;;;9.88;76.57
13767;BME280;47980;48.794;9.176;2023-03-26T06:54:43;97205.13;;;9.86;74.65
13767;BME280;47980;48.794;9.176;2023-03-26T06:57:14;97201.13;;;9.77;75.10
13767;BME280;47980;48.794;9.176;2023-03-26T06:59:46;97202.31;;;9.79;74.64
13767;BME280;47980;48.794;9.176;2023-03-26T07:02:19;97193.94;;;9.77;75.24
13767;BME280;47980;48.794;9.176;2023-03-26T07:04:51;97192.66;;;9.71;73.28
13767;BME280;47980;48.794;9.176;2023-03-26T07:07:22;97191.53;;;9.72;73.76
13767;BME280;47980;48.794;9.176;2023-03-26T07:09:54;97181.63;;;9.85;71.55
13767;BME280;47980;48.794;9.176;2023-03-26T07:12:26;97183.25;;;9.89;73.54
13767;BME280;47980;48.794;9.176;2023-03-26T07:14:58;97172.31;;;9.91;73.00
13767;BME280;47980;48.794;9.176;2023-03-26T07:17:32;97170.78;;;9.90;72.96
13767;BME280;47980;48.794;9.176;2023-03-26T07:20:05;97170.19;;;9.97;73.99
13767;BME280;47980;48.794;9.176;2023-03-26T07:22:37;97156.13;;;10.12;74.21
13767;BME280;47980;48.794;9.176;2023-03-26T07:25:10;97165.56;;;9.94;73.65
13767;BME280;47980;48.794;9.176;2023-03-26T07:27:48;97154.47;;;9.72;73.12
13767;BME280;47980;48.794;9.176;2023-03-26T07:30:25;97147.03;;;9.78;75.94
13767;BME280;47980;48.794;9.176;2023-03-26T07:33:05;97136.25;;;9.86;76.34
13767;BME280;47980;48.794;9.176;2023-03-26T07:35:43;97134.13;;;9.92;77.00
13767;BME280;47980;48.794;9.176;2023-03-26T07:38:26;97131.81;;;9.91;76.14
13767;BME280;47980;48.794;9.176;2023-03-26T07:41:08;97127.56;;;9.86;79.10
13767;BME280;47980;48.794;9.176;2023-03-26T07:43:58;97132.69;;;9.79;77.93
13767;BME280;47980;48.794;9.176;2023-03-26T07:46:33;97133.44;;;9.79;79.21
13767;BME280;47980;48.794;9.176;2023-03-26T07:49:10;97126.63;;;9.62;80.26
13767;BME280;47980;48.794;9.176;2023-03-26T07:51:43;97116.44;;;9.64;82.18
13767;BME280;47980;48.794;9.176;2023-03-26T07:54:15;97112.63;;;9.78;81.69
13767;BME280;47980;48.794;9.176;2023-03-26T07:56:50;97116.63;;;9.56;84.51
13767;BME280;47980;48.794;9.176;2023-03-26T07:59:27;97107.75;;;9.48;85.38
13767;BME280;47980;48.794;9.176;2023-03-26T08:05:23;97114.13;;;9.15;88.03
13767;BME280;47980;48.794;9.176;2023-03-26T08:08:02;97108.41;;;9.29;90.64
13767;BME280;47980;48.794;9.176;2023-03-26T08:10:42;97103.72;;;9.38;90.68
13767;BME280;47980;48.794;9.176;2023-03-26T08:13:24;97100.91;;;9.47;91.26
13767;BME280;47980;48.794;9.176;2023-03-26T08:16:02;97106.38;;;9.38;91.69
13767;BME280;47980;48.794;9.176;2023-03-26T08:18:44;97097.13;;;9.16;93.95
13767;BME280;47980;48.794;9.176;2023-03-26T08:21:23;97081.09;;;9.25;94.08
13767;BME280;47980;48.794;9.176;2023-03-26T08:24:00;97074.25;;;9.40;93.23
13767;BME280;47980;48.794;9.176;2023-03-26T08:26:40;97073.00;;;9.50;94.87
13767;BME280;47980;48.794;9.176;2023-03-26T08:29:20;97068.97;;;9.40;94.18
13767;BME280;47980;48.794;9.176;2023-03-26T08:31:54;97067.94;;;9.29;95.05
13767;BME280;47980;48.794;9.176;2023-03-26T08:34:26;97063.69;;;9.40;95.11
13767;BME280;47980;48.794;9.176;2023-03-26T08:36:59;97067.63;;;9.46;95.93
13767;BME280;47980;48.794;9.176;2023-03-26T08:39:31;97058.28;;;9.68;95.39
13767;BME280;47980;48.794;9.176;2023-03-26T08:42:29;97056.75;;;9.67;95.27
13767;BME280;47980;48.794;9.176;2023-03-26T08:54:47;97048.47;;;10.23;95.65
13767;BME280;47980;48.794;9.176;2023-03-26T08:57:56;97047.88;;;10.30;93.96
13767;BME280;47980;48.794;9.176;2023-03-26T09:00:41;97042.94;;;10.28;94.50
13767;BME280;47980;48.794;9.176;2023-03-26T09:03:44;97039.59;;;10.51;93.11
13767;BME280;47980;48.794;9.176;2023-03-26T09:06:33;97037.16;;;10.62;92.64
13767;BME280;47980;48.794;9.176;2023-03-26T09:12:42;97043.56;;;11.03;88.55
13767;BME280;47980;48.794;9.176;2023-03-26T09:15:36;97047.00;;;11.26;88.19
13767;BME280;47980;48.794;9.176;2023-03-26T09:19:07;97039.31;;;11.44;84.11
13767;BME280;47980;48.794;9.176;2023-03-26T09:21:59;97041.63;;;11.23;88.16
13767;BME280;47980;48.794;9.176;2023-03-26T09:25:06;97042.50;;;11.30;87.16
13767;BME280;47980;48.794;9.176;2023-03-26T09:28:04;97052.50;;;11.64;85.85
13767;BME280;47980;48.794;9.176;2023-03-26T09:33:53;97043.97;;;11.28;88.19
13767;BME280;47980;48.794;9.176;2023-03-26T09:36:37;97036.28;;;11.72;83.97
13767;BME280;47980;48.794;9.176;2023-03-26T09:39:16;97041.84;;;12.13;82.67
13767;BME280;47980;48.794;9.176;2023-03-26T09:41:58;97034.75;;;12.58;80.97
13767;BME280;47980;48.794;9.176;2023-03-26T09:47:54;97032.53;;;13.01;77.03
13767;BME280;47980;48.794;9.176;2023-03-26T09:50:41;97038.63;;;14.08;72.53
13767;BME280;47980;48.794;9.176;2023-03-26T09:53:39;97029.25;;;14.36;72.18
13767;BME280;47980;48.794;9.176;2023-03-26T09:56:21;97034.81;;;14.02;70.38
13767;BME280;47980;48.794;9.176;2023-03-26T09:59:07;97024.97;;;14.17;71.26
13767;BME280;47980;48.794;9.176;2023-03-26T10:01:50;97023.41;;;14.05;68.64
13767;BME280;47980;48.794;9.176;2023-03-26T10:04:53;97018.44;;;14.07;69.37
13767;BME280;47980;48.794;9.176;2023-03-26T10:07:41;97017.63;;;13.92;69.78
13767;BME280;47980;48.794;9.176;2023-03-26T10:10:25;97018.66;;;13.73;69.07
13767;BME280;47980;48.794;9.176;2023-03-26T10:13:06;97011.13;;;13.93;67.39
13767;BME280;47980;48.794;9.176;2023-03-26T10:15:59;97015.03;;;14.07;67.89
13767;BME280;47980;48.794;9.176;2023-03-26T10:18:45;97015.63;;;13.79;68.82
13767;BME280;47980;48.794;9.176;2023-03-26T10:21:25;97014.78;;;13.64;67.92
13767;BME280;47980;48.794;9.176;2023-03-26T10:24:07;97009.56;;;13.27;71.97
13767;BME280;47980;48.794;9.176;2023-03-26T10:26:50;97010.06;;;12.98;68.02
13767;BME280;47980;48.794;9.176;2023-03-26T10:29:43;97010.72;;;12.88;70.36
13767;BME280;47980;48.794;9.176;2023-03-26T10:32:29;97006.34;;;13.10;70.06
13767;BME280;47980;48.794;9.176;2023-03-26T10:35:18;96989.56;;;13.02;70.47
13767;BME280;47980;48.794;9.176;2023-03-26T10:38:00;96987.88;;;13.90;66.94
13767;BME280;47980;48.794;9.176;2023-03-26T10:40:47;96996.41;;;14.17;61.90
13767;BME280;47980;48.794;9.176;2023-03-26T10:43:54;96995.38;;;14.51;58.31
13767;BME280;47980;48.794;9.176;2023-03-26T10:46:46;96993.16;;;14.60;59.53
13767;BME280;47980;48.794;9.176;2023-03-26T10:49:46;96987.03;;;14.70;56.26
13767;BME280;47980;48.794;9.176;2023-03-26T10:52:30;96987.06;;;15.59;54.93
13767;BME280;47980;48.794;9.176;2023-03-26T10:55:09;97006.88;;;15.98;54.20
13767;BME280;47980;48.794;9.176;2023-03-26T10:57:46;97005.03;;;15.66;52.66
13767;BME280;47980;48.794;9.176;2023-03-26T11:00:22;97023.72;;;15.52;53.18
13767;BME280;47980;48.794;9.176;2023-03-26T11:06:13;97000.78;;;14.79;54.01
13767;BME280;47980;48.794;9.176;2023-03-26T11:08:54;97000.44;;;15.13;53.10
13767;BME280;47980;48.794;9.176;2023-03-26T11:11:31;97005.78;;;15.27;52.41
13767;BME280;47980;48.794;9.176;2023-03-26T11:14:09;97011.09;;;15.88;50.05
13767;BME280;47980;48.794;9.176;2023-03-26T11:16:57;97000.84;;;15.15;50.76
13767;BME280;47980;48.794;9.176;2023-03-26T11:19:35;97005.00;;;15.73;50.67
13767;BME280;47980;48.794;9.176;2023-03-26T11:22:17;96986.66;;;15.68;48.37
13767;BME280;47980;48.794;9.176;2023-03-26T11:25:07;96983.63;;;15.59;49.79
13767;BME280;47980;48.794;9.176;2023-03-26T11:27:55;96995.06;;;15.84;49.82
13767;BME280;47980;48.794;9.176;2023-03-26T11:30:38;96989.00;;;15.20;48.23
13767;BME280;47980;48.794;9.176;2023-03-26T11:33:17;96990.50;;;15.31;49.91
13767;BME280;47980;48.794;9.176;2023-03-26T11:35:50;96977.53;;;15.51;48.69
13767;BME280;47980;48.794;9.176;2023-03-26T11:38:27;96976.38;;;15.67;49.23
13767;BME280;47980;48.794;9.176;2023-03-26T11:41:10;96983.16;;;16.00;51.28
13767;BME280;47980;48.794;9.176;2023-03-26T11:43:44;96978.22;;;15.98;49.01
13767;BME280;47980;48.794;9.176;2023-03-26T11:46:21;96969.25;;;16.30;48.29
13767;BME280;47980;48.794;9.176;2023-03-26T11:48:55;96976.19;;;16.27;47.77
13767;BME280;47980;48.794;9.176;2023-03-26T11:51:30;96976.53;;;16.26;47.69
13767;BME280;47980;48.794;9.176;2023-03-26T11:54:04;96959.69;;;16.32;47.69
13767;BME280;47980;48.794;9.176;2023-03-26T11:56:41;96945.78;;;16.55;47.10
13767;BME280;47980;48.794;9.176;2023-03-26T11:59:18;96946.09;;;16.72;46.33
13767;BME280;47980;48.794;9.176;2023-03-26T12:01:54;96950.38;;;17.14;45.18
13767;BME280;47980;48.794;9.176;2023-03-26T12:04:29;96958.25;;;16.87;44.50
13767;BME280;47980;48.794;9.176;2023-03-26T12:07:08;96959.72;;;16.95;44.04
13767;BME280;47980;48.794;9.176;2023-03-26T12:09:48;96972.81;;;16.82;42.81
13767;BME280;47980;48.794;9.176;2023-03-26T12:12:24;96980.38;;;16.28;43.74
13767;BME280;47980;48.794;9.176;2023-03-26T12:14:56;97007.69;;;15.20;51.34
13767;BME280;47980;48.794;9.176;2023-03-26T12:17:30;96983.38;;;13.98;56.81
13767;BME280;47980;48.794;9.176;2023-03-26T12:20:25;96974.50;;;13.83;57.64
13767;BME280;47980;48.794;9.176;2023-03-26T12:23:02;96971.94;;;14.05;57.16
13767;BME280;47980;48.794;9.176;2023-03-26T12:25:36;96973.06;;;13.31;58.08
13767;BME280;47980;48.794;9.176;2023-03-26T12:28:17;96973.03;;;13.23;59.03
13767;BME280;47980;48.794;9.176;2023-03-26T12:31:00;96973.06;;;13.93;56.61
13767;BME280;47980;48.794;9.176;2023-03-26T12:33:33;96968.72;;;13.67;57.89
13767;BME280;47980;48.794;9.176;2023-03-26T12:36:16;96956.69;;;13.94;58.04
13767;BME280;47980;48.794;9.176;2023-03-26T12:38:50;96962.47;;;13.38;57.61
13767;BME280;47980;48.794;9.176;2023-03-26T12:41:32;96969.78;;;13.52;59.39
13767;BME280;47980;48.794;9.176;2023-03-26T12:44:21;96958.75;;;13.53;60.93
13767;BME280;47980;48.794;9.176;2023-03-26T12:47:08;96963.19;;;13.35;63.64
13767;BME280;47980;48.794;9.176;2023-03-26T12:49:41;96965.59;;;13.54;65.66
13767;BME280;47980;48.794;9.176;2023-03-26T12:52:26;96964.47;;;13.55;66.12
13767;BME280;47980;48.794;9.176;2023-03-26T12:55:10;96950.13;;;13.74;65.24
13767;BME280;47980;48.794;9.176;2023-03-26T12:57:50;96949.00;;;13.79;63.36
13767;BME280;47980;48.794;9.176;2023-03-26T13:00:39;96942.03;;;13.56;63.42
13767;BME280;47980;48.794;9.176;2023-03-26T13:03:32;96937.22;;;13.87;61.85
13767;BME280;47980;48.794;9.176;2023-03-26T13:06:24;96925.53;;;14.20;60.08
13767;BME280;47980;48.794;9.176;2023-03-26T13:12:15;96923.75;;;14.85;58.51
13767;BME280;47980;48.794;9.176;2023-03-26T13:15:10;96912.28;;;14.84;57.27
13767;BME280;47980;48.794;9.176;2023-03-26T13:17:52;96921.06;;;14.60;56.98
13767;BME280;47980;48.794;9.176;2023-03-26T13:20:28;96919.56;;;14.91;57.56
13767;BME280;47980;48.794;9.176;2023-03-26T13:23:09;96923.38;;;14.86;53.41
13767;BME280;47980;48.794;9.176;2023-03-26T13:25:53;96910.03;;;14.76;53.91
13767;BME280;47980;48.794;9.176;2023-03-26T13:28:33;96910.03;;;14.97;53.96
13767;BME280;47980;48.794;9.176;2023-03-26T13:31:15;96908.50;;;15.03;54.45
13767;BME280;47980;48.794;9.176;2023-03-26T13:33:57;96902.78;;;14.94;52.79
13767;BME280;47980;48.794;9.176;2023-03-26T13:36:40;96896.66;;;15.19;52.30
13767;BME280;47980;48.794;9.176;2023-03-26T13:39:22;96900.00;;;15.51;52.74
13767;BME280;47980;48.794;9.176;2023-03-26T13:42:10;96892.72;;;15.62;52.39
13767;BME280;47980;48.794;9.176;2023-03-26T13:44:56;96890.53;;;15.18;52.28
13767;BME280;47980;48.794;9.176;2023-03-26T13:47:35;96895.09;;;15.17;52.25
13767;BME280;47980;48.794;9.176;2023-03-26T13:50:17;96890.16;;;14.98;53.16
13767;BME280;47980;48.794;9.176;2023-03-26T13:52:53;96890.91;;;15.13;53.29
13767;BME280;47980;48.794;9.176;2023-03-26T13:55:29;96885.59;;;14.66;53.85
13767;BME280;47980;48.794;9.176;2023-03-26T13:58:10;96879.03;;;14.17;55.04
13767;BME280;47980;48.794;9.176;2023-03-26T14:00:48;96875.66;;;14.92;52.68
13767;BME280;47980;48.794;9.176;2023-03-26T14:03:27;96884.81;;;15.20;52.06
13767;BME280;47980;48.794;9.176;2023-03-26T14:06:09;96879.47;;;15.12;52.99
13767;BME280;47980;48.794;9.176;2023-03-26T14:08:44;96876.81;;;14.95;53.87
13767;BME280;47980;48.794;9.176;2023-03-26T14:11:21;96875.69;;;14.60;53.54
13767;BME280;47980;48.794;9.176;2023-03-26T14:14:00;96863.47;;;14.98;54.11
13767;BME280;47980;48.794;9.176;2023-03-26T14:16:37;96870.66;;;15.33;53.94
13767;BME280;47980;48.794;9.176;2023-03-26T14:19:29;96874.16;;;14.52;55.61
13767;BME280;47980;48.794;9.176;2023-03-26T14:22:14;96872.66;;;14.68;54.46
13767;BME280;47980;48.794;9.176;2023-03-26T14:24:57;96883.31;;;14.54;54.70
13767;BME280;47980;48.794;9.176;2023-03-26T14:27:43;96901.59;;;14.56;54.30
13767;BME280;47980;48.794;9.176;2023-03-26T14:30:44;96922.19;;;13.50;51.89
13767;BME280;47980;48.794;9.176;2023-03-26T14:36:24;96952.97;;;12.14;59.58